Startpagina
METAR-TAF:

METAR-TAF

Vliegvelden :

Luchthaven Pointe-Noire

Pointe-Noire, Congo

breedte: 04-49S, lengte: 011-54E, hoogte: 17 m

Actueel weer

Dit bericht is 39 minuten geleden gemaakt, om 22:00 UTC
Wind 2 kt uit het oostnoordoosten
Temperatuur 23°C
Vochtigheid 94%
Druk 1014 hPa
Zicht: 6000 m
Verspreide wolken op 1000 ft

METAR: FCPP 232200Z 06002KT 6000 SCT010 23/22 Q1014 NOSIG

Tijdstip: 23:39 (22:39 UTC)

Verwachting

Dit bericht is 5 uur en het 39 minuten geleden gemaakt, om 17:00 UTC
Verwachting geldig van 23 om 18 UTC tot 24 om 18 UTC
Wind 8 kt uit het zuiden
Zicht: 8000 m
Weinig wolken op 1500 ft
Kans 30%
van 23 om 19 UTC tot 23 om 22 UTC
Verspreide wolken op 1500 ft
Gebroken wolken op 2300 ft
Weinig wolken op 3000 ft, Cumulonimbus.
Wijzigt naar
van 24 om 12 UTC tot 24 om 14 UTC
Verspreide wolken op 2000 ft
Weinig wolken op 3000 ft, Cumulonimbus.

TAF: FCPP 231700Z 2318/2418 19008KT 8000 FEW015 PROB30 2319/2322 SCT015 BKN023 FEW030CB BECMG 2412/2414 SCT020 FEW030CB

Waarnemingen en weersverwachtingen van meer dan 4000 vliegvelden (METAR en TAF).

De beschikbare stations zijn de gele en rode punten op de kaart.

Ga met uw muis naar het station om de naam te zien.

Klik dan om waarnemingen en weersverwachtingen te zien.

kaart wijzigen: klik op de groene knoppen met een zwart kruis om in te zoomen, op de groene knop met een streepje om uit te zoomen of op de groene pijlen voor aangrenzende kaarten.


METAR-TAF: